sensor_id;sensor_type;location;lat;lon;timestamp;temperature;humidity
55121;DHT22;41019;48.512;9.036;2022-07-23T00:00:53;22.30;84.20
55121;DHT22;41019;48.512;9.036;2022-07-23T00:03:19;22.30;82.00
55121;DHT22;41019;48.512;9.036;2022-07-23T00:05:45;22.30;82.40
55121;DHT22;41019;48.512;9.036;2022-07-23T00:08:11;22.20;83.10
55121;DHT22;41019;48.512;9.036;2022-07-23T00:10:37;22.20;82.10
55121;DHT22;41019;48.512;9.036;2022-07-23T00:13:03;22.20;83.50
55121;DHT22;41019;48.512;9.036;2022-07-23T00:15:29;22.20;84.90
55121;DHT22;41019;48.512;9.036;2022-07-23T00:17:55;22.20;84.60
55121;DHT22;41019;48.512;9.036;2022-07-23T00:20:21;22.20;88.20
55121;DHT22;41019;48.512;9.036;2022-07-23T00:22:53;22.20;85.20
55121;DHT22;41019;48.512;9.036;2022-07-23T00:25:20;22.20;84.70
55121;DHT22;41019;48.512;9.036;2022-07-23T00:27:46;22.20;81.40
55121;DHT22;41019;48.512;9.036;2022-07-23T00:30:13;22.10;78.70
55121;DHT22;41019;48.512;9.036;2022-07-23T00:32:54;22.10;78.10
55121;DHT22;41019;48.512;9.036;2022-07-23T00:35:21;22.10;79.40
55121;DHT22;41019;48.512;9.036;2022-07-23T00:37:48;22.10;81.60
55121;DHT22;41019;48.512;9.036;2022-07-23T00:40:13;22.10;80.60
55121;DHT22;41019;48.512;9.036;2022-07-23T00:42:39;22.10;82.40
55121;DHT22;41019;48.512;9.036;2022-07-23T00:45:06;22.10;83.00
55121;DHT22;41019;48.512;9.036;2022-07-23T00:47:33;22.00;78.20
55121;DHT22;41019;48.512;9.036;2022-07-23T00:49:59;22.00;77.70
55121;DHT22;41019;48.512;9.036;2022-07-23T00:52:26;22.00;79.70
55121;DHT22;41019;48.512;9.036;2022-07-23T00:54:52;22.00;78.80
55121;DHT22;41019;48.512;9.036;2022-07-23T00:57:18;22.00;76.30
55121;DHT22;41019;48.512;9.036;2022-07-23T00:59:44;22.00;73.30
55121;DHT22;41019;48.512;9.036;2022-07-23T01:02:11;22.00;76.80
55121;DHT22;41019;48.512;9.036;2022-07-23T01:04:37;22.00;77.40
55121;DHT22;41019;48.512;9.036;2022-07-23T01:07:03;21.90;78.30
55121;DHT22;41019;48.512;9.036;2022-07-23T01:09:31;21.90;78.00
55121;DHT22;41019;48.512;9.036;2022-07-23T01:11:59;21.90;80.90
55121;DHT22;41019;48.512;9.036;2022-07-23T01:14:26;21.90;81.10
55121;DHT22;41019;48.512;9.036;2022-07-23T01:16:52;21.90;75.70
55121;DHT22;41019;48.512;9.036;2022-07-23T01:19:18;21.90;76.20
55121;DHT22;41019;48.512;9.036;2022-07-23T01:21:47;21.90;78.30
55121;DHT22;41019;48.512;9.036;2022-07-23T01:24:14;21.80;80.30
55121;DHT22;41019;48.512;9.036;2022-07-23T01:26:48;21.80;81.00
55121;DHT22;41019;48.512;9.036;2022-07-23T01:29:16;21.80;82.60
55121;DHT22;41019;48.512;9.036;2022-07-23T01:31:43;21.80;83.50
55121;DHT22;41019;48.512;9.036;2022-07-23T01:34:09;21.80;83.50
55121;DHT22;41019;48.512;9.036;2022-07-23T01:36:35;21.70;82.80
55121;DHT22;41019;48.512;9.036;2022-07-23T01:39:03;21.70;83.70
55121;DHT22;41019;48.512;9.036;2022-07-23T01:41:30;21.60;83.10
55121;DHT22;41019;48.512;9.036;2022-07-23T01:43:56;21.60;84.10
55121;DHT22;41019;48.512;9.036;2022-07-23T01:46:22;21.60;83.60
55121;DHT22;41019;48.512;9.036;2022-07-23T01:48:50;21.60;83.40
55121;DHT22;41019;48.512;9.036;2022-07-23T01:51:43;21.50;83.60
55121;DHT22;41019;48.512;9.036;2022-07-23T01:54:28;21.50;82.90
55121;DHT22;41019;48.512;9.036;2022-07-23T01:56:54;21.50;81.50
55121;DHT22;41019;48.512;9.036;2022-07-23T01:59:21;21.50;80.90
55121;DHT22;41019;48.512;9.036;2022-07-23T02:01:48;21.50;79.40
55121;DHT22;41019;48.512;9.036;2022-07-23T02:04:17;21.50;79.30
55121;DHT22;41019;48.512;9.036;2022-07-23T02:06:43;21.50;78.40
55121;DHT22;41019;48.512;9.036;2022-07-23T02:09:10;21.50;76.70
55121;DHT22;41019;48.512;9.036;2022-07-23T02:11:36;21.60;75.40
55121;DHT22;41019;48.512;9.036;2022-07-23T02:14:02;21.50;74.20
55121;DHT22;41019;48.512;9.036;2022-07-23T02:16:28;21.60;75.00
55121;DHT22;41019;48.512;9.036;2022-07-23T02:19:00;21.50;74.50
55121;DHT22;41019;48.512;9.036;2022-07-23T02:21:26;21.50;74.60
55121;DHT22;41019;48.512;9.036;2022-07-23T02:23:52;21.50;75.10
55121;DHT22;41019;48.512;9.036;2022-07-23T02:26:19;21.50;73.10
55121;DHT22;41019;48.512;9.036;2022-07-23T02:28:46;21.50;73.50
55121;DHT22;41019;48.512;9.036;2022-07-23T02:31:12;21.40;72.60
55121;DHT22;41019;48.512;9.036;2022-07-23T02:33:38;21.40;74.20
55121;DHT22;41019;48.512;9.036;2022-07-23T02:36:05;21.40;74.10
55121;DHT22;41019;48.512;9.036;2022-07-23T02:38:31;21.40;77.10
55121;DHT22;41019;48.512;9.036;2022-07-23T02:40:57;21.30;78.50
55121;DHT22;41019;48.512;9.036;2022-07-23T02:43:23;21.30;78.30
55121;DHT22;41019;48.512;9.036;2022-07-23T02:45:49;21.30;79.30
55121;DHT22;41019;48.512;9.036;2022-07-23T02:48:15;21.20;80.30
55121;DHT22;41019;48.512;9.036;2022-07-23T02:50:44;21.20;79.80
55121;DHT22;41019;48.512;9.036;2022-07-23T02:53:12;21.20;79.80
55121;DHT22;41019;48.512;9.036;2022-07-23T02:55:39;21.20;81.00
55121;DHT22;41019;48.512;9.036;2022-07-23T02:58:05;21.10;80.80
55121;DHT22;41019;48.512;9.036;2022-07-23T03:00:32;21.10;80.20
55121;DHT22;41019;48.512;9.036;2022-07-23T03:02:58;21.10;79.70
55121;DHT22;41019;48.512;9.036;2022-07-23T03:05:24;21.10;82.50
55121;DHT22;41019;48.512;9.036;2022-07-23T03:07:49;21.00;82.60
55121;DHT22;41019;48.512;9.036;2022-07-23T03:10:16;21.00;82.70
55121;DHT22;41019;48.512;9.036;2022-07-23T03:12:43;21.00;81.80
55121;DHT22;41019;48.512;9.036;2022-07-23T03:15:09;21.00;81.20
55121;DHT22;41019;48.512;9.036;2022-07-23T03:17:35;21.00;81.30
55121;DHT22;41019;48.512;9.036;2022-07-23T03:20:02;20.90;81.70
55121;DHT22;41019;48.512;9.036;2022-07-23T03:22:29;20.90;83.40
55121;DHT22;41019;48.512;9.036;2022-07-23T03:24:55;20.90;82.70
55121;DHT22;41019;48.512;9.036;2022-07-23T03:27:27;20.90;81.90
55121;DHT22;41019;48.512;9.036;2022-07-23T03:29:56;20.90;81.80
55121;DHT22;41019;48.512;9.036;2022-07-23T03:32:24;20.80;82.70
55121;DHT22;41019;48.512;9.036;2022-07-23T03:34:51;20.80;82.40
55121;DHT22;41019;48.512;9.036;2022-07-23T03:37:18;20.70;81.70
55121;DHT22;41019;48.512;9.036;2022-07-23T03:39:46;20.70;81.40
55121;DHT22;41019;48.512;9.036;2022-07-23T03:42:12;20.60;81.30
55121;DHT22;41019;48.512;9.036;2022-07-23T03:44:38;20.60;81.70
55121;DHT22;41019;48.512;9.036;2022-07-23T03:47:06;20.50;82.00
55121;DHT22;41019;48.512;9.036;2022-07-23T03:49:34;20.50;82.30
55121;DHT22;41019;48.512;9.036;2022-07-23T03:52:01;20.40;82.40
55121;DHT22;41019;48.512;9.036;2022-07-23T03:54:27;20.40;82.40
55121;DHT22;41019;48.512;9.036;2022-07-23T03:56:53;20.30;82.50
55121;DHT22;41019;48.512;9.036;2022-07-23T03:59:19;20.30;82.50
55121;DHT22;41019;48.512;9.036;2022-07-23T04:01:45;20.30;82.90
55121;DHT22;41019;48.512;9.036;2022-07-23T04:04:11;20.30;83.40
55121;DHT22;41019;48.512;9.036;2022-07-23T04:06:39;20.30;83.40
55121;DHT22;41019;48.512;9.036;2022-07-23T04:09:06;20.40;85.00
55121;DHT22;41019;48.512;9.036;2022-07-23T04:11:32;20.40;84.40
55121;DHT22;41019;48.512;9.036;2022-07-23T04:14:00;20.40;85.30
55121;DHT22;41019;48.512;9.036;2022-07-23T04:16:26;20.40;85.10
55121;DHT22;41019;48.512;9.036;2022-07-23T04:18:52;20.40;85.00
55121;DHT22;41019;48.512;9.036;2022-07-23T04:21:20;20.40;85.10
55121;DHT22;41019;48.512;9.036;2022-07-23T04:23:48;20.40;86.60
55121;DHT22;41019;48.512;9.036;2022-07-23T04:26:14;20.40;85.70
55121;DHT22;41019;48.512;9.036;2022-07-23T04:28:41;20.40;85.80
55121;DHT22;41019;48.512;9.036;2022-07-23T04:31:07;20.40;85.80
55121;DHT22;41019;48.512;9.036;2022-07-23T04:33:35;20.40;85.40
55121;DHT22;41019;48.512;9.036;2022-07-23T04:36:05;20.50;85.50
55121;DHT22;41019;48.512;9.036;2022-07-23T04:38:31;20.50;85.90
55121;DHT22;41019;48.512;9.036;2022-07-23T04:41:01;20.50;85.60
55121;DHT22;41019;48.512;9.036;2022-07-23T04:43:27;20.60;86.60
55121;DHT22;41019;48.512;9.036;2022-07-23T04:45:54;20.60;85.80
55121;DHT22;41019;48.512;9.036;2022-07-23T04:48:20;20.70;85.00
55121;DHT22;41019;48.512;9.036;2022-07-23T04:50:48;20.80;86.20
55121;DHT22;41019;48.512;9.036;2022-07-23T04:53:17;20.80;85.80
55121;DHT22;41019;48.512;9.036;2022-07-23T04:55:44;21.00;85.50
55121;DHT22;41019;48.512;9.036;2022-07-23T04:58:10;21.00;86.00
55121;DHT22;41019;48.512;9.036;2022-07-23T05:00:36;21.00;84.40
55121;DHT22;41019;48.512;9.036;2022-07-23T05:03:02;21.10;83.90
55121;DHT22;41019;48.512;9.036;2022-07-23T05:05:29;21.10;83.10
55121;DHT22;41019;48.512;9.036;2022-07-23T05:08:00;21.10;83.10
55121;DHT22;41019;48.512;9.036;2022-07-23T05:10:27;21.10;83.10
55121;DHT22;41019;48.512;9.036;2022-07-23T05:12:53;21.10;83.20
55121;DHT22;41019;48.512;9.036;2022-07-23T05:15:19;21.20;82.80
55121;DHT22;41019;48.512;9.036;2022-07-23T05:17:45;21.20;83.80
55121;DHT22;41019;48.512;9.036;2022-07-23T05:20:15;21.30;84.10
55121;DHT22;41019;48.512;9.036;2022-07-23T05:22:41;21.30;83.60
55121;DHT22;41019;48.512;9.036;2022-07-23T05:25:08;21.30;86.20
55121;DHT22;41019;48.512;9.036;2022-07-23T05:27:35;21.40;84.90
55121;DHT22;41019;48.512;9.036;2022-07-23T05:30:01;21.40;84.20
55121;DHT22;41019;48.512;9.036;2022-07-23T05:32:27;21.40;84.00
55121;DHT22;41019;48.512;9.036;2022-07-23T05:35:05;21.40;83.30
55121;DHT22;41019;48.512;9.036;2022-07-23T05:37:31;21.30;82.50
55121;DHT22;41019;48.512;9.036;2022-07-23T05:40:06;21.30;82.60
55121;DHT22;41019;48.512;9.036;2022-07-23T05:42:34;21.30;82.20
55121;DHT22;41019;48.512;9.036;2022-07-23T05:45:01;21.30;82.60
55121;DHT22;41019;48.512;9.036;2022-07-23T05:47:27;21.40;83.70
55121;DHT22;41019;48.512;9.036;2022-07-23T05:49:54;21.40;82.40
55121;DHT22;41019;48.512;9.036;2022-07-23T05:52:33;21.40;80.50
55121;DHT22;41019;48.512;9.036;2022-07-23T05:55:22;21.50;82.80
55121;DHT22;41019;48.512;9.036;2022-07-23T05:57:48;21.60;81.30
55121;DHT22;41019;48.512;9.036;2022-07-23T06:00:14;21.70;80.10
55121;DHT22;41019;48.512;9.036;2022-07-23T06:02:41;21.80;81.70
55121;DHT22;41019;48.512;9.036;2022-07-23T06:05:09;21.90;79.50
55121;DHT22;41019;48.512;9.036;2022-07-23T06:07:37;22.00;80.40
55121;DHT22;41019;48.512;9.036;2022-07-23T06:10:05;22.20;78.60
55121;DHT22;41019;48.512;9.036;2022-07-23T06:12:31;22.30;78.10
55121;DHT22;41019;48.512;9.036;2022-07-23T06:14:57;22.40;76.70
55121;DHT22;41019;48.512;9.036;2022-07-23T06:17:23;22.50;76.00
55121;DHT22;41019;48.512;9.036;2022-07-23T06:19:49;22.70;74.40
55121;DHT22;41019;48.512;9.036;2022-07-23T06:22:15;22.80;74.30
55121;DHT22;41019;48.512;9.036;2022-07-23T06:24:41;22.90;73.00
55121;DHT22;41019;48.512;9.036;2022-07-23T06:27:07;23.00;72.30
55121;DHT22;41019;48.512;9.036;2022-07-23T06:29:34;23.10;72.70
55121;DHT22;41019;48.512;9.036;2022-07-23T06:32:01;23.20;71.90
55121;DHT22;41019;48.512;9.036;2022-07-23T06:34:28;23.40;71.70
55121;DHT22;41019;48.512;9.036;2022-07-23T06:36:55;23.50;70.30
55121;DHT22;41019;48.512;9.036;2022-07-23T06:39:21;23.60;70.90
55121;DHT22;41019;48.512;9.036;2022-07-23T06:41:48;23.70;70.10
55121;DHT22;41019;48.512;9.036;2022-07-23T06:44:16;23.90;69.60
55121;DHT22;41019;48.512;9.036;2022-07-23T06:46:42;24.10;70.80
55121;DHT22;41019;48.512;9.036;2022-07-23T06:49:09;24.20;69.10
55121;DHT22;41019;48.512;9.036;2022-07-23T06:51:35;24.40;68.10
55121;DHT22;41019;48.512;9.036;2022-07-23T06:54:02;24.60;67.20
55121;DHT22;41019;48.512;9.036;2022-07-23T06:56:29;24.80;66.40
55121;DHT22;41019;48.512;9.036;2022-07-23T06:58:54;25.00;65.40
55121;DHT22;41019;48.512;9.036;2022-07-23T07:01:20;25.10;64.60
55121;DHT22;41019;48.512;9.036;2022-07-23T07:03:47;25.30;64.00
55121;DHT22;41019;48.512;9.036;2022-07-23T07:06:14;25.40;64.90
55121;DHT22;41019;48.512;9.036;2022-07-23T07:08:40;25.60;64.50
55121;DHT22;41019;48.512;9.036;2022-07-23T07:11:06;25.70;65.30
55121;DHT22;41019;48.512;9.036;2022-07-23T07:13:32;25.90;62.00
55121;DHT22;41019;48.512;9.036;2022-07-23T07:15:58;26.10;61.80
55121;DHT22;41019;48.512;9.036;2022-07-23T07:18:23;26.30;61.20
55121;DHT22;41019;48.512;9.036;2022-07-23T07:20:49;26.30;61.70
55121;DHT22;41019;48.512;9.036;2022-07-23T07:23:15;26.40;60.30
55121;DHT22;41019;48.512;9.036;2022-07-23T07:25:41;26.40;59.30
55121;DHT22;41019;48.512;9.036;2022-07-23T07:28:07;26.40;60.60
55121;DHT22;41019;48.512;9.036;2022-07-23T07:30:33;26.40;59.30
55121;DHT22;41019;48.512;9.036;2022-07-23T07:32:59;26.40;59.10
55121;DHT22;41019;48.512;9.036;2022-07-23T07:35:25;26.50;61.20
55121;DHT22;41019;48.512;9.036;2022-07-23T07:37:51;26.60;59.80
55121;DHT22;41019;48.512;9.036;2022-07-23T07:40:18;26.80;58.90
55121;DHT22;41019;48.512;9.036;2022-07-23T07:42:46;27.00;56.10
55121;DHT22;41019;48.512;9.036;2022-07-23T07:45:12;27.20;55.00
55121;DHT22;41019;48.512;9.036;2022-07-23T07:47:38;27.30;55.50
55121;DHT22;41019;48.512;9.036;2022-07-23T07:50:04;27.40;55.90
55121;DHT22;41019;48.512;9.036;2022-07-23T07:52:30;27.40;55.90
55121;DHT22;41019;48.512;9.036;2022-07-23T07:54:56;27.40;54.70
55121;DHT22;41019;48.512;9.036;2022-07-23T07:57:22;27.40;55.60
55121;DHT22;41019;48.512;9.036;2022-07-23T07:59:48;27.30;54.70
55121;DHT22;41019;48.512;9.036;2022-07-23T08:02:14;27.30;56.50
55121;DHT22;41019;48.512;9.036;2022-07-23T08:04:40;27.30;55.30
55121;DHT22;41019;48.512;9.036;2022-07-23T08:07:06;27.40;54.10
55121;DHT22;41019;48.512;9.036;2022-07-23T08:09:32;27.50;53.40
55121;DHT22;41019;48.512;9.036;2022-07-23T08:11:58;27.60;54.10
55121;DHT22;41019;48.512;9.036;2022-07-23T08:14:24;27.60;55.90
55121;DHT22;41019;48.512;9.036;2022-07-23T08:16:50;27.60;55.60
55121;DHT22;41019;48.512;9.036;2022-07-23T08:19:16;27.70;54.90
55121;DHT22;41019;48.512;9.036;2022-07-23T08:21:42;27.70;55.00
55121;DHT22;41019;48.512;9.036;2022-07-23T08:24:08;27.80;55.10
55121;DHT22;41019;48.512;9.036;2022-07-23T08:26:34;27.90;55.60
55121;DHT22;41019;48.512;9.036;2022-07-23T08:28:59;28.10;53.90
55121;DHT22;41019;48.512;9.036;2022-07-23T08:31:25;28.30;54.00
55121;DHT22;41019;48.512;9.036;2022-07-23T08:33:51;28.50;53.20
55121;DHT22;41019;48.512;9.036;2022-07-23T08:36:18;28.70;51.50
55121;DHT22;41019;48.512;9.036;2022-07-23T08:38:44;28.70;50.40
55121;DHT22;41019;48.512;9.036;2022-07-23T08:41:10;28.70;48.60
55121;DHT22;41019;48.512;9.036;2022-07-23T08:43:36;28.70;48.70
55121;DHT22;41019;48.512;9.036;2022-07-23T08:46:04;28.50;48.00
55121;DHT22;41019;48.512;9.036;2022-07-23T08:48:33;28.50;48.80
55121;DHT22;41019;48.512;9.036;2022-07-23T08:51:01;28.60;50.20
55121;DHT22;41019;48.512;9.036;2022-07-23T08:53:28;28.70;51.60
55121;DHT22;41019;48.512;9.036;2022-07-23T08:55:57;28.90;52.10
55121;DHT22;41019;48.512;9.036;2022-07-23T08:58:24;29.10;51.20
55121;DHT22;41019;48.512;9.036;2022-07-23T09:00:50;29.20;48.30
55121;DHT22;41019;48.512;9.036;2022-07-23T09:03:22;29.40;49.20
55121;DHT22;41019;48.512;9.036;2022-07-23T09:05:51;29.50;49.40
55121;DHT22;41019;48.512;9.036;2022-07-23T09:08:22;29.80;47.40
55121;DHT22;41019;48.512;9.036;2022-07-23T09:11:03;29.90;48.40
55121;DHT22;41019;48.512;9.036;2022-07-23T09:16:17;30.50;46.20
55121;DHT22;41019;48.512;9.036;2022-07-23T09:21:14;30.70;46.20
55121;DHT22;41019;48.512;9.036;2022-07-23T09:26:19;30.70;47.10
55121;DHT22;41019;48.512;9.036;2022-07-23T09:29:10;30.60;47.10
55121;DHT22;41019;48.512;9.036;2022-07-23T09:34:26;30.50;47.30
55121;DHT22;41019;48.512;9.036;2022-07-23T09:39:35;30.60;47.00
55121;DHT22;41019;48.512;9.036;2022-07-23T09:42:22;30.70;47.50
55121;DHT22;41019;48.512;9.036;2022-07-23T09:44:56;30.90;47.50
55121;DHT22;41019;48.512;9.036;2022-07-23T09:47:25;31.10;46.70
55121;DHT22;41019;48.512;9.036;2022-07-23T09:50:02;31.10;46.00
55121;DHT22;41019;48.512;9.036;2022-07-23T09:52:33;31.30;46.20
55121;DHT22;41019;48.512;9.036;2022-07-23T09:55:01;31.40;45.50
55121;DHT22;41019;48.512;9.036;2022-07-23T09:57:27;31.60;44.30
55121;DHT22;41019;48.512;9.036;2022-07-23T09:59:58;31.60;44.10
55121;DHT22;41019;48.512;9.036;2022-07-23T10:02:28;31.60;44.50
55121;DHT22;41019;48.512;9.036;2022-07-23T10:05:20;31.70;45.10
55121;DHT22;41019;48.512;9.036;2022-07-23T10:08:11;31.80;44.30
55121;DHT22;41019;48.512;9.036;2022-07-23T10:10:57;32.10;44.50
55121;DHT22;41019;48.512;9.036;2022-07-23T10:13:30;32.40;44.70
55121;DHT22;41019;48.512;9.036;2022-07-23T10:16:16;32.60;43.80
55121;DHT22;41019;48.512;9.036;2022-07-23T10:18:42;32.70;44.40
55121;DHT22;41019;48.512;9.036;2022-07-23T10:21:10;32.60;43.20
55121;DHT22;41019;48.512;9.036;2022-07-23T10:29:58;32.50;44.10
55121;DHT22;41019;48.512;9.036;2022-07-23T10:35:36;31.80;43.90
55121;DHT22;41019;48.512;9.036;2022-07-23T10:38:18;31.60;43.90
55121;DHT22;41019;48.512;9.036;2022-07-23T10:41:00;31.40;44.50
55121;DHT22;41019;48.512;9.036;2022-07-23T10:43:28;31.30;45.40
55121;DHT22;41019;48.512;9.036;2022-07-23T10:45:54;31.30;45.20
55121;DHT22;41019;48.512;9.036;2022-07-23T10:48:25;31.30;46.50
55121;DHT22;41019;48.512;9.036;2022-07-23T10:51:24;31.20;45.50
55121;DHT22;41019;48.512;9.036;2022-07-23T10:53:55;31.30;47.00
55121;DHT22;41019;48.512;9.036;2022-07-23T10:56:51;31.30;44.50
55121;DHT22;41019;48.512;9.036;2022-07-23T10:59:30;31.60;44.30
55121;DHT22;41019;48.512;9.036;2022-07-23T11:02:20;32.10;44.00
55121;DHT22;41019;48.512;9.036;2022-07-23T11:04:52;32.40;42.00
55121;DHT22;41019;48.512;9.036;2022-07-23T11:07:18;32.60;41.70
55121;DHT22;41019;48.512;9.036;2022-07-23T11:09:45;32.40;41.40
55121;DHT22;41019;48.512;9.036;2022-07-23T11:20:23;33.20;39.60
55121;DHT22;41019;48.512;9.036;2022-07-23T11:22:52;33.30;39.90
55121;DHT22;41019;48.512;9.036;2022-07-23T11:28:14;33.60;41.40
55121;DHT22;41019;48.512;9.036;2022-07-23T11:30:46;33.70;40.10
55121;DHT22;41019;48.512;9.036;2022-07-23T11:35:41;33.90;38.10
55121;DHT22;41019;48.512;9.036;2022-07-23T11:40:51;33.30;39.50
55121;DHT22;41019;48.512;9.036;2022-07-23T11:43:20;33.20;39.30
55121;DHT22;41019;48.512;9.036;2022-07-23T11:45:53;33.00;39.30
55121;DHT22;41019;48.512;9.036;2022-07-23T11:48:22;32.70;39.40
55121;DHT22;41019;48.512;9.036;2022-07-23T11:50:50;32.60;42.20
55121;DHT22;41019;48.512;9.036;2022-07-23T11:55:48;32.70;41.80
55121;DHT22;41019;48.512;9.036;2022-07-23T11:58:14;32.70;41.00
55121;DHT22;41019;48.512;9.036;2022-07-23T12:00:41;32.80;39.70
55121;DHT22;41019;48.512;9.036;2022-07-23T12:03:07;33.10;40.30
55121;DHT22;41019;48.512;9.036;2022-07-23T12:05:36;33.20;39.20
55121;DHT22;41019;48.512;9.036;2022-07-23T12:08:08;33.50;39.90
55121;DHT22;41019;48.512;9.036;2022-07-23T12:10:35;33.70;38.40
55121;DHT22;41019;48.512;9.036;2022-07-23T12:13:22;34.00;38.00
55121;DHT22;41019;48.512;9.036;2022-07-23T12:15:56;34.00;37.10
55121;DHT22;41019;48.512;9.036;2022-07-23T12:18:26;34.30;38.60
55121;DHT22;41019;48.512;9.036;2022-07-23T12:20:56;34.60;37.60
55121;DHT22;41019;48.512;9.036;2022-07-23T12:23:25;34.90;37.80
55121;DHT22;41019;48.512;9.036;2022-07-23T12:25:53;34.90;39.30
55121;DHT22;41019;48.512;9.036;2022-07-23T12:28:29;35.00;38.90
55121;DHT22;41019;48.512;9.036;2022-07-23T12:30:57;35.00;37.70
55121;DHT22;41019;48.512;9.036;2022-07-23T12:33:37;35.30;38.50
55121;DHT22;41019;48.512;9.036;2022-07-23T12:36:06;35.50;38.50
55121;DHT22;41019;48.512;9.036;2022-07-23T12:38:42;35.40;35.80
55121;DHT22;41019;48.512;9.036;2022-07-23T12:41:08;35.40;36.40
55121;DHT22;41019;48.512;9.036;2022-07-23T12:43:40;35.30;36.30
55121;DHT22;41019;48.512;9.036;2022-07-23T12:46:15;34.80;36.00
55121;DHT22;41019;48.512;9.036;2022-07-23T12:51:18;34.00;37.00
55121;DHT22;41019;48.512;9.036;2022-07-23T12:53:47;33.80;37.40
55121;DHT22;41019;48.512;9.036;2022-07-23T12:56:20;33.50;37.50
55121;DHT22;41019;48.512;9.036;2022-07-23T12:58:52;33.40;38.50
55121;DHT22;41019;48.512;9.036;2022-07-23T13:01:23;33.30;37.90
55121;DHT22;41019;48.512;9.036;2022-07-23T13:03:58;33.40;38.40
55121;DHT22;41019;48.512;9.036;2022-07-23T13:06:40;33.40;38.90
55121;DHT22;41019;48.512;9.036;2022-07-23T13:09:09;33.40;37.50
55121;DHT22;41019;48.512;9.036;2022-07-23T13:11:35;33.30;38.40
55121;DHT22;41019;48.512;9.036;2022-07-23T13:14:02;33.30;38.40
55121;DHT22;41019;48.512;9.036;2022-07-23T13:16:30;33.20;39.00
55121;DHT22;41019;48.512;9.036;2022-07-23T13:18:56;33.30;38.70
55121;DHT22;41019;48.512;9.036;2022-07-23T13:21:23;33.40;39.40
55121;DHT22;41019;48.512;9.036;2022-07-23T13:23:49;33.70;37.60
55121;DHT22;41019;48.512;9.036;2022-07-23T13:26:16;33.90;36.60
55121;DHT22;41019;48.512;9.036;2022-07-23T13:28:42;34.00;37.30
55121;DHT22;41019;48.512;9.036;2022-07-23T13:31:09;34.10;37.60
55121;DHT22;41019;48.512;9.036;2022-07-23T13:33:35;34.30;37.50
55121;DHT22;41019;48.512;9.036;2022-07-23T13:36:02;34.10;37.40
55121;DHT22;41019;48.512;9.036;2022-07-23T13:38:28;33.90;38.00
55121;DHT22;41019;48.512;9.036;2022-07-23T13:40:55;33.60;37.60
55121;DHT22;41019;48.512;9.036;2022-07-23T13:43:23;33.40;37.20
55121;DHT22;41019;48.512;9.036;2022-07-23T13:45:50;33.20;37.00
55121;DHT22;41019;48.512;9.036;2022-07-23T13:48:18;32.80;37.70
55121;DHT22;41019;48.512;9.036;2022-07-23T13:50:46;32.60;39.20
55121;DHT22;41019;48.512;9.036;2022-07-23T13:53:17;32.50;41.20
55121;DHT22;41019;48.512;9.036;2022-07-23T13:55:45;32.30;41.00
55121;DHT22;41019;48.512;9.036;2022-07-23T13:58:12;32.30;41.30
55121;DHT22;41019;48.512;9.036;2022-07-23T14:00:42;32.30;42.20
55121;DHT22;41019;48.512;9.036;2022-07-23T14:03:08;32.30;42.70
55121;DHT22;41019;48.512;9.036;2022-07-23T14:05:34;32.20;42.40
55121;DHT22;41019;48.512;9.036;2022-07-23T14:08:01;31.90;42.30
55121;DHT22;41019;48.512;9.036;2022-07-23T14:10:28;31.80;43.30
55121;DHT22;41019;48.512;9.036;2022-07-23T14:12:54;31.60;42.80
55121;DHT22;41019;48.512;9.036;2022-07-23T14:15:23;31.50;42.90
55121;DHT22;41019;48.512;9.036;2022-07-23T14:17:49;31.40;43.00
55121;DHT22;41019;48.512;9.036;2022-07-23T14:20:16;31.30;42.40
55121;DHT22;41019;48.512;9.036;2022-07-23T14:22:42;31.10;42.20
55121;DHT22;41019;48.512;9.036;2022-07-23T14:25:10;30.90;42.50
55121;DHT22;41019;48.512;9.036;2022-07-23T14:27:37;30.70;42.90
55121;DHT22;41019;48.512;9.036;2022-07-23T14:30:05;30.70;43.40
55121;DHT22;41019;48.512;9.036;2022-07-23T14:32:31;30.70;43.20
55121;DHT22;41019;48.512;9.036;2022-07-23T14:34:57;30.70;43.90
55121;DHT22;41019;48.512;9.036;2022-07-23T14:37:23;30.80;43.90
55121;DHT22;41019;48.512;9.036;2022-07-23T14:39:50;31.10;43.10
55121;DHT22;41019;48.512;9.036;2022-07-23T14:42:17;31.40;42.10
55121;DHT22;41019;48.512;9.036;2022-07-23T14:44:43;31.70;42.10
55121;DHT22;41019;48.512;9.036;2022-07-23T14:47:10;31.90;40.50
55121;DHT22;41019;48.512;9.036;2022-07-23T14:49:37;32.10;40.20
55121;DHT22;41019;48.512;9.036;2022-07-23T14:52:04;32.30;41.00
55121;DHT22;41019;48.512;9.036;2022-07-23T14:54:30;32.50;39.70
55121;DHT22;41019;48.512;9.036;2022-07-23T14:56:58;32.60;39.00
55121;DHT22;41019;48.512;9.036;2022-07-23T14:59:24;32.80;38.90
55121;DHT22;41019;48.512;9.036;2022-07-23T15:01:52;32.80;38.80
55121;DHT22;41019;48.512;9.036;2022-07-23T15:04:18;32.70;38.20
55121;DHT22;41019;48.512;9.036;2022-07-23T15:06:44;32.70;38.20
55121;DHT22;41019;48.512;9.036;2022-07-23T15:09:11;32.70;38.90
55121;DHT22;41019;48.512;9.036;2022-07-23T15:11:37;32.90;39.20
55121;DHT22;41019;48.512;9.036;2022-07-23T15:14:04;33.00;38.70
55121;DHT22;41019;48.512;9.036;2022-07-23T15:16:30;33.10;38.20
55121;DHT22;41019;48.512;9.036;2022-07-23T15:18:56;33.10;37.70
55121;DHT22;41019;48.512;9.036;2022-07-23T15:21:22;33.00;38.00
55121;DHT22;41019;48.512;9.036;2022-07-23T15:23:49;32.90;38.10
55121;DHT22;41019;48.512;9.036;2022-07-23T15:26:14;32.80;37.50
55121;DHT22;41019;48.512;9.036;2022-07-23T15:28:41;32.60;38.10
55121;DHT22;41019;48.512;9.036;2022-07-23T15:31:07;32.40;39.00
55121;DHT22;41019;48.512;9.036;2022-07-23T15:33:33;32.30;38.60
55121;DHT22;41019;48.512;9.036;2022-07-23T15:36:01;32.30;38.80
55121;DHT22;41019;48.512;9.036;2022-07-23T15:38:27;32.30;38.60
55121;DHT22;41019;48.512;9.036;2022-07-23T15:40:56;32.30;38.00
55121;DHT22;41019;48.512;9.036;2022-07-23T15:43:23;32.40;39.10
55121;DHT22;41019;48.512;9.036;2022-07-23T15:45:50;32.30;39.70
55121;DHT22;41019;48.512;9.036;2022-07-23T15:48:19;32.20;40.30
55121;DHT22;41019;48.512;9.036;2022-07-23T15:50:46;32.00;40.40
55121;DHT22;41019;48.512;9.036;2022-07-23T15:53:12;31.80;39.30
55121;DHT22;41019;48.512;9.036;2022-07-23T15:55:39;31.60;40.00
55121;DHT22;41019;48.512;9.036;2022-07-23T15:58:06;31.40;39.30
55121;DHT22;41019;48.512;9.036;2022-07-23T16:00:33;31.40;39.40
55121;DHT22;41019;48.512;9.036;2022-07-23T16:02:59;31.50;39.20
55121;DHT22;41019;48.512;9.036;2022-07-23T16:05:25;31.50;38.70
55121;DHT22;41019;48.512;9.036;2022-07-23T16:07:51;31.60;39.30
55121;DHT22;41019;48.512;9.036;2022-07-23T16:10:18;31.60;40.70
55121;DHT22;41019;48.512;9.036;2022-07-23T16:12:43;31.50;39.70
55121;DHT22;41019;48.512;9.036;2022-07-23T16:15:10;31.50;39.50
55121;DHT22;41019;48.512;9.036;2022-07-23T16:17:36;31.30;39.60
55121;DHT22;41019;48.512;9.036;2022-07-23T16:20:04;31.20;39.90